Terminal Aerodrome Forecast
Issued by NWS

Home | Current Version | Previous Version | Text Only | Print | Product List | Glossary On
Versions: 1 2 3 4 5 6 7 8 9 10 11 12 13
000
FTUS45 KRIW 230300 AAA
TAFCPR
TAF AMD
KCPR 230352Z 2304/2324 32014G20KT P6SM VCSH SCT025 BKN040
     FM230600 28011KT P6SM SCT050 BKN090
     FM231800 30012G20KT P6SM SCT070 BKN120=

USA.gov is the U.S. government's official web portal to all federal, state and local government web resources and services.